createdAt,value
2023-05-22T00:00:23.823Z,12.10
2023-05-22T00:00:54.223Z,12.10
2023-05-22T00:01:25.237Z,12.10
2023-05-22T00:01:57.179Z,12.10
2023-05-22T00:02:27.177Z,12.10
2023-05-22T00:03:00.887Z,12.10
2023-05-22T00:03:29.294Z,12.10
2023-05-22T00:04:00.100Z,12.10
2023-05-22T00:04:31.256Z,12.10
2023-05-22T00:05:02.514Z,12.10
2023-05-22T00:05:33.113Z,12.10
2023-05-22T00:06:04.194Z,12.10
2023-05-22T00:06:35.131Z,12.10
2023-05-22T00:07:06.195Z,12.00
2023-05-22T00:07:37.215Z,12.00
2023-05-22T00:08:08.255Z,12.00
2023-05-22T00:08:39.204Z,12.00
2023-05-22T00:09:10.208Z,11.90
2023-05-22T00:09:41.344Z,11.90
2023-05-22T00:10:12.540Z,11.90
2023-05-22T00:10:43.053Z,11.90
2023-05-22T00:11:14.485Z,11.90
2023-05-22T00:11:45.284Z,11.90
2023-05-22T00:12:16.396Z,11.90
2023-05-22T00:12:47.738Z,11.90
2023-05-22T00:13:18.464Z,11.90
2023-05-22T00:13:49.156Z,11.90
2023-05-22T00:14:20.187Z,11.90
2023-05-22T00:14:51.530Z,11.90
2023-05-22T00:15:22.632Z,11.90
2023-05-22T00:15:53.201Z,11.90
2023-05-22T00:16:24.159Z,11.90
2023-05-22T00:16:55.169Z,11.90
2023-05-22T00:17:26.297Z,11.90
2023-05-22T00:17:57.259Z,11.90
2023-05-22T00:18:28.207Z,11.90
2023-05-22T00:18:59.400Z,11.90
2023-05-22T00:19:30.350Z,11.90
2023-05-22T00:20:01.256Z,11.90
2023-05-22T00:20:32.128Z,11.90
2023-05-22T00:21:03.048Z,11.90
2023-05-22T00:21:34.291Z,11.90
2023-05-22T00:22:05.383Z,11.90
2023-05-22T00:22:36.404Z,11.90
2023-05-22T00:23:07.154Z,11.80
2023-05-22T00:23:38.447Z,11.80
2023-05-22T00:24:09.329Z,11.80
2023-05-22T00:24:40.250Z,11.80
2023-05-22T00:25:11.594Z,11.80
2023-05-22T00:25:42.216Z,11.80
2023-05-22T00:26:13.054Z,11.80
2023-05-22T00:26:44.198Z,11.80
2023-05-22T00:27:15.210Z,11.80
2023-05-22T00:27:46.171Z,11.80
2023-05-22T00:28:17.577Z,11.80
2023-05-22T00:28:48.469Z,11.80
2023-05-22T00:29:19.244Z,11.80
2023-05-22T00:29:50.380Z,11.80
2023-05-22T00:30:22.109Z,11.80
2023-05-22T00:30:52.455Z,11.80
2023-05-22T00:31:23.154Z,11.80
2023-05-22T00:31:54.198Z,11.80
2023-05-22T00:32:25.170Z,11.80
2023-05-22T00:32:56.407Z,11.80
2023-05-22T00:33:29.043Z,11.80
2023-05-22T00:33:58.201Z,11.80
2023-05-22T00:34:31.117Z,11.80
2023-05-22T00:35:00.600Z,11.80
2023-05-22T00:35:31.971Z,11.80
2023-05-22T00:36:02.805Z,11.80
2023-05-22T00:36:33.530Z,11.80
2023-05-22T00:37:04.530Z,11.80
2023-05-22T00:37:35.558Z,11.80
2023-05-22T00:38:06.496Z,11.80
2023-05-22T00:38:37.206Z,11.80
2023-05-22T00:39:08.298Z,11.80
2023-05-22T00:39:39.291Z,11.80
2023-05-22T00:40:11.178Z,11.80
2023-05-22T00:40:41.445Z,11.70
2023-05-22T00:41:12.489Z,11.70
2023-05-22T00:41:43.142Z,11.70
2023-05-22T00:42:14.290Z,11.70
2023-05-22T00:42:45.276Z,11.70
2023-05-22T00:43:16.224Z,11.70
2023-05-22T00:43:47.287Z,11.70
2023-05-22T00:44:18.342Z,11.70
2023-05-22T00:44:49.272Z,11.70
2023-05-22T00:45:21.351Z,11.70
2023-05-22T00:45:51.237Z,11.70
2023-05-22T00:46:22.804Z,11.70
2023-05-22T00:46:53.327Z,11.70
2023-05-22T00:47:24.409Z,11.70
2023-05-22T00:47:55.300Z,11.70
2023-05-22T00:48:26.606Z,11.70
2023-05-22T00:48:57.832Z,11.70
2023-05-22T00:49:28.288Z,11.70
2023-05-22T00:49:59.473Z,11.70
2023-05-22T00:50:31.063Z,11.70
2023-05-22T00:51:01.613Z,11.70
2023-05-22T00:51:32.296Z,11.70
2023-05-22T00:52:03.299Z,11.70
2023-05-22T00:52:34.957Z,11.70
2023-05-22T00:53:05.273Z,11.70
2023-05-22T00:53:36.384Z,11.70
2023-05-22T00:54:07.793Z,11.70
2023-05-22T00:54:38.555Z,11.70
2023-05-22T00:55:08.994Z,11.70
2023-05-22T00:55:39.770Z,11.70
2023-05-22T00:56:10.758Z,11.70
2023-05-22T00:56:41.937Z,11.70
2023-05-22T00:57:12.934Z,11.70
2023-05-22T00:57:43.985Z,11.70
2023-05-22T00:58:14.822Z,11.70
2023-05-22T00:58:46.052Z,11.70
2023-05-22T00:59:17.001Z,11.70
2023-05-22T00:59:48.073Z,11.70
2023-05-22T01:00:19.548Z,11.70
2023-05-22T01:00:49.866Z,11.70
2023-05-22T01:01:21.045Z,11.70
2023-05-22T01:01:51.843Z,11.70
2023-05-22T01:02:22.782Z,11.70
2023-05-22T01:02:54.058Z,11.70
2023-05-22T01:03:25.206Z,11.70
2023-05-22T01:03:56.016Z,11.70
2023-05-22T01:04:26.873Z,11.70
2023-05-22T01:05:00.125Z,11.70
2023-05-22T01:05:29.103Z,11.70
2023-05-22T01:06:00.658Z,11.30
2023-05-22T01:06:31.291Z,11.30
2023-05-22T01:07:03.326Z,11.30
2023-05-22T01:07:33.354Z,11.30
2023-05-22T01:08:04.886Z,11.30
2023-05-22T01:08:35.335Z,11.30
2023-05-22T01:09:06.770Z,11.30
2023-05-22T01:09:37.362Z,11.30
2023-05-22T01:10:08.587Z,11.30
2023-05-22T01:10:39.435Z,11.30
2023-05-22T01:11:10.289Z,11.30
2023-05-22T01:11:41.427Z,11.30
2023-05-22T01:12:12.693Z,11.30
2023-05-22T01:12:44.113Z,11.30
2023-05-22T01:13:14.596Z,11.30
2023-05-22T01:13:45.757Z,11.30
2023-05-22T01:14:16.382Z,11.30
2023-05-22T01:14:47.427Z,11.30
2023-05-22T01:15:18.959Z,11.30
2023-05-22T01:15:49.776Z,11.30
2023-05-22T01:16:19.976Z,11.30
2023-05-22T01:16:51.223Z,11.30
2023-05-22T01:17:21.864Z,11.30
2023-05-22T01:17:53.388Z,11.30
2023-05-22T01:18:24.385Z,11.30
2023-05-22T01:18:54.929Z,11.30
2023-05-22T01:19:26.355Z,11.30
2023-05-22T01:19:56.885Z,11.30
2023-05-22T01:20:28.333Z,11.30
2023-05-22T01:20:58.867Z,11.30
2023-05-22T01:21:29.982Z,11.30
2023-05-22T01:22:00.966Z,11.30
2023-05-22T01:22:32.049Z,11.30
2023-05-22T01:23:03.038Z,11.30
2023-05-22T01:23:34.055Z,11.30
2023-05-22T01:24:04.956Z,11.30
2023-05-22T01:24:35.940Z,11.30
2023-05-22T01:25:07.130Z,11.30
2023-05-22T01:25:37.982Z,11.30
2023-05-22T01:26:08.965Z,11.30
2023-05-22T01:26:40.245Z,11.30
2023-05-22T01:27:11.050Z,11.30
2023-05-22T01:27:42.085Z,11.30
2023-05-22T01:28:13.529Z,11.30
2023-05-22T01:28:44.192Z,11.30
2023-05-22T01:29:15.388Z,11.20
2023-05-22T01:29:46.790Z,11.20
2023-05-22T01:30:18.311Z,11.20
2023-05-22T01:30:48.436Z,11.20
2023-05-22T01:31:19.401Z,11.20
2023-05-22T01:31:50.592Z,11.20
2023-05-22T01:32:21.669Z,11.20
2023-05-22T01:32:52.649Z,11.20
2023-05-22T01:33:23.611Z,11.20
2023-05-22T01:33:54.625Z,11.20
2023-05-22T01:34:25.429Z,11.20
2023-05-22T01:34:56.649Z,11.20
2023-05-22T01:35:28.331Z,11.20
2023-05-22T01:35:58.434Z,11.20
2023-05-22T01:36:31.293Z,11.20
2023-05-22T01:37:00.585Z,11.20
2023-05-22T01:37:33.680Z,11.20
2023-05-22T01:38:02.497Z,11.20
2023-05-22T01:38:33.865Z,11.20
2023-05-22T01:39:04.670Z,11.20
2023-05-22T01:39:35.153Z,11.20
2023-05-22T01:40:06.781Z,11.20
2023-05-22T01:40:37.123Z,11.20
2023-05-22T01:41:08.164Z,11.20
2023-05-22T01:41:39.193Z,11.20
2023-05-22T01:42:09.966Z,11.20
2023-05-22T01:42:41.528Z,11.20
2023-05-22T01:43:12.341Z,11.20
2023-05-22T01:43:43.383Z,11.20
2023-05-22T01:44:13.968Z,11.20
2023-05-22T01:44:45.311Z,11.20
2023-05-22T01:45:16.574Z,11.20
2023-05-22T01:45:47.459Z,11.20
2023-05-22T01:46:18.075Z,11.20
2023-05-22T01:46:48.991Z,11.20
2023-05-22T01:47:19.983Z,11.20
2023-05-22T01:47:51.251Z,11.20
2023-05-22T01:48:22.359Z,11.20
2023-05-22T01:48:52.946Z,11.20
2023-05-22T01:49:23.975Z,11.20
2023-05-22T01:49:55.323Z,11.20
2023-05-22T01:50:26.518Z,11.20
2023-05-22T01:50:57.012Z,11.20
2023-05-22T01:51:27.956Z,11.20
2023-05-22T01:51:59.076Z,11.20
2023-05-22T01:52:30.472Z,11.20
2023-05-22T01:53:01.099Z,11.20
2023-05-22T01:53:32.050Z,11.20
2023-05-22T01:54:02.972Z,11.20
2023-05-22T01:54:34.144Z,11.20
2023-05-22T01:55:05.233Z,11.20
2023-05-22T01:55:36.007Z,11.20
2023-05-22T01:56:07.029Z,11.20
2023-05-22T01:56:38.757Z,11.20
2023-05-22T01:57:09.395Z,11.20
2023-05-22T01:57:40.249Z,11.20
2023-05-22T01:58:11.072Z,11.20
2023-05-22T01:58:42.357Z,11.20
2023-05-22T01:59:13.027Z,11.20
2023-05-22T01:59:44.014Z,11.20
2023-05-22T02:00:16.124Z,11.20
2023-05-22T02:00:46.066Z,11.20
2023-05-22T02:01:17.058Z,11.20
2023-05-22T02:01:48.092Z,11.20
2023-05-22T02:02:19.101Z,11.20
2023-05-22T02:02:50.721Z,11.20
2023-05-22T02:03:21.154Z,11.20
2023-05-22T02:03:52.049Z,11.20
2023-05-22T02:04:23.040Z,11.20
2023-05-22T02:04:54.251Z,11.20
2023-05-22T02:05:25.724Z,11.20
2023-05-22T02:05:56.138Z,11.20
2023-05-22T02:06:27.038Z,11.20
2023-05-22T02:06:58.049Z,11.20
2023-05-22T02:07:29.295Z,11.20
2023-05-22T02:08:01.292Z,11.20
2023-05-22T02:08:31.380Z,11.20
2023-05-22T02:09:04.363Z,11.20
2023-05-22T02:09:33.470Z,11.20
2023-05-22T02:10:04.308Z,11.20
2023-05-22T02:10:35.082Z,11.20
2023-05-22T02:11:06.307Z,11.20
2023-05-22T02:11:37.080Z,11.20
2023-05-22T02:12:08.072Z,11.20
2023-05-22T02:12:39.095Z,11.20
2023-05-22T02:13:10.412Z,11.20
2023-05-22T02:13:41.146Z,11.20
2023-05-22T02:14:12.522Z,11.20
2023-05-22T02:14:43.227Z,11.20
2023-05-22T02:15:14.891Z,11.20
2023-05-22T02:15:45.378Z,11.20
2023-05-22T02:16:16.209Z,11.20
2023-05-22T02:16:47.376Z,11.20
2023-05-22T02:17:18.112Z,11.20
2023-05-22T02:17:49.553Z,11.20
2023-05-22T02:18:20.385Z,11.20
2023-05-22T02:18:51.180Z,11.20
2023-05-22T02:19:22.109Z,11.20
2023-05-22T02:19:53.451Z,11.20
2023-05-22T02:20:24.535Z,11.20
2023-05-22T02:20:55.193Z,11.20
2023-05-22T02:21:26.411Z,11.20
2023-05-22T02:21:57.187Z,11.20
2023-05-22T02:22:28.091Z,11.20
2023-05-22T02:22:59.225Z,11.20
2023-05-22T02:23:31.229Z,11.20
2023-05-22T02:24:01.280Z,11.20
2023-05-22T02:24:32.265Z,11.20
2023-05-22T02:25:03.873Z,11.20
2023-05-22T02:25:34.692Z,11.20
2023-05-22T02:26:05.096Z,11.20
2023-05-22T02:26:36.267Z,11.20
2023-05-22T02:27:07.482Z,11.20
2023-05-22T02:27:38.508Z,11.20
2023-05-22T02:28:09.166Z,11.20
2023-05-22T02:28:40.313Z,11.20
2023-05-22T02:29:11.113Z,11.20
2023-05-22T02:29:42.104Z,11.20
2023-05-22T02:30:14.563Z,11.20
2023-05-22T02:30:44.505Z,11.20
2023-05-22T02:31:15.153Z,11.20
2023-05-22T02:31:46.375Z,11.20
2023-05-22T02:32:17.094Z,11.20
2023-05-22T02:32:48.313Z,11.20
2023-05-22T02:33:19.333Z,11.20
2023-05-22T02:33:50.449Z,11.20
2023-05-22T02:34:21.393Z,11.20
2023-05-22T02:34:54.682Z,11.20
2023-05-22T02:35:23.602Z,11.20
2023-05-22T02:35:54.138Z,11.20
2023-05-22T02:36:25.142Z,11.20
2023-05-22T02:36:56.103Z,11.20
2023-05-22T02:37:27.593Z,11.20
2023-05-22T02:37:58.143Z,11.20
2023-05-22T02:38:29.133Z,11.20
2023-05-22T02:39:00.155Z,11.20
2023-05-22T02:39:32.218Z,11.20
2023-05-22T02:40:02.757Z,11.20
2023-05-22T02:40:35.014Z,11.20
2023-05-22T02:41:04.154Z,11.20
2023-05-22T02:41:36.327Z,11.20
2023-05-22T02:42:06.124Z,11.20
2023-05-22T02:42:37.148Z,11.20
2023-05-22T02:43:08.198Z,11.20
2023-05-22T02:43:39.244Z,11.20
2023-05-22T02:44:10.220Z,11.20
2023-05-22T02:44:41.523Z,11.20
2023-05-22T02:45:12.933Z,11.20
2023-05-22T02:45:43.161Z,11.20
2023-05-22T02:46:14.211Z,11.20
2023-05-22T02:46:45.897Z,11.20
2023-05-22T02:47:16.336Z,11.20
2023-05-22T02:47:47.213Z,11.20
2023-05-22T02:48:18.552Z,11.20
2023-05-22T02:48:49.534Z,11.20
2023-05-22T02:49:20.145Z,11.20
2023-05-22T02:49:51.740Z,11.20
2023-05-22T02:50:23.068Z,11.20
2023-05-22T02:50:53.452Z,11.20
2023-05-22T02:51:24.177Z,11.20
2023-05-22T02:51:55.548Z,11.20
2023-05-22T02:52:26.286Z,11.20
2023-05-22T02:52:57.197Z,11.20
2023-05-22T02:53:28.461Z,11.20
2023-05-22T02:53:59.205Z,11.20
2023-05-22T02:54:30.526Z,11.20
2023-05-22T02:55:01.918Z,11.20
2023-05-22T02:55:32.204Z,11.20
2023-05-22T02:56:03.176Z,11.20
2023-05-22T02:56:34.202Z,11.20
2023-05-22T02:57:05.214Z,11.20
2023-05-22T02:57:36.355Z,11.20
2023-05-22T02:58:07.185Z,11.20
2023-05-22T02:58:38.178Z,11.20
2023-05-22T02:59:09.194Z,11.20
2023-05-22T02:59:40.215Z,11.20
2023-05-22T03:00:11.971Z,11.20
2023-05-22T03:00:42.272Z,11.20
2023-05-22T03:01:13.221Z,11.20
2023-05-22T03:01:44.278Z,11.20
2023-05-22T03:02:15.182Z,11.20
2023-05-22T03:02:46.257Z,11.20
2023-05-22T03:03:17.294Z,11.20
2023-05-22T03:03:48.681Z,11.20
2023-05-22T03:04:19.409Z,11.20
2023-05-22T03:04:51.076Z,11.20
2023-05-22T03:05:21.699Z,11.20
2023-05-22T03:05:52.762Z,11.20
2023-05-22T03:06:23.375Z,11.20
2023-05-22T03:06:54.215Z,11.20
2023-05-22T03:07:25.449Z,11.20
2023-05-22T03:07:56.205Z,11.20
2023-05-22T03:08:27.500Z,11.20
2023-05-22T03:08:58.215Z,11.20
2023-05-22T03:09:29.361Z,11.20
2023-05-22T03:10:01.059Z,11.20
2023-05-22T03:10:31.341Z,11.20
2023-05-22T03:11:04.215Z,11.20
2023-05-22T03:11:33.454Z,11.20
2023-05-22T03:12:06.313Z,9.70
2023-05-22T03:12:35.984Z,9.70
2023-05-22T03:13:07.180Z,9.70
2023-05-22T03:13:38.167Z,9.70
2023-05-22T03:14:09.014Z,9.70
2023-05-22T03:14:39.822Z,9.70
2023-05-22T03:15:11.942Z,9.70
2023-05-22T03:15:41.720Z,9.70
2023-05-22T03:16:12.768Z,9.70
2023-05-22T03:16:43.857Z,9.70
2023-05-22T03:17:14.760Z,9.70
2023-05-22T03:17:45.796Z,9.70
2023-05-22T03:18:21.637Z,9.70
2023-05-22T03:18:48.757Z,9.70
2023-05-22T03:19:19.165Z,9.70
2023-05-22T03:19:49.856Z,9.70
2023-05-22T03:20:21.394Z,9.70
2023-05-22T03:20:51.744Z,9.70
2023-05-22T03:21:23.451Z,9.70
2023-05-22T03:21:53.256Z,9.70
2023-05-22T03:22:24.643Z,9.70
2023-05-22T03:22:55.563Z,9.70
2023-05-22T03:23:26.833Z,9.70
2023-05-22T03:23:57.318Z,9.70
2023-05-22T03:24:28.548Z,9.70
2023-05-22T03:24:59.524Z,9.70
2023-05-22T03:25:30.967Z,9.70
2023-05-22T03:26:01.509Z,9.70
2023-05-22T03:26:32.581Z,9.70
2023-05-22T03:27:03.445Z,9.70
2023-05-22T03:27:34.692Z,9.70
2023-05-22T03:28:05.289Z,9.70
2023-05-22T03:28:36.334Z,9.70
2023-05-22T03:29:07.665Z,9.70
2023-05-22T03:29:38.450Z,9.70
2023-05-22T03:30:10.368Z,9.70
2023-05-22T03:30:40.597Z,9.70
2023-05-22T03:31:11.949Z,9.80
2023-05-22T03:31:43.245Z,9.80
2023-05-22T03:32:13.867Z,9.80
2023-05-22T03:32:45.310Z,9.80
2023-05-22T03:33:15.967Z,9.80
2023-05-22T03:33:47.298Z,9.80
2023-05-22T03:34:17.828Z,9.80
2023-05-22T03:34:48.957Z,9.80
2023-05-22T03:35:21.037Z,9.80
2023-05-22T03:35:50.892Z,9.80
2023-05-22T03:36:22.389Z,9.80
2023-05-22T03:36:52.938Z,9.80
2023-05-22T03:37:23.947Z,9.80
2023-05-22T03:37:54.895Z,9.80
2023-05-22T03:38:26.303Z,9.80
2023-05-22T03:38:56.892Z,10.00
2023-05-22T03:39:28.197Z,10.00
2023-05-22T03:39:59.293Z,10.00
2023-05-22T03:40:30.368Z,10.00
2023-05-22T03:41:01.286Z,10.00
2023-05-22T03:41:32.284Z,10.00
2023-05-22T03:42:03.169Z,10.00
2023-05-22T03:42:35.783Z,10.00
2023-05-22T03:43:04.943Z,10.00
2023-05-22T03:43:37.315Z,10.00
2023-05-22T03:44:06.933Z,10.00
2023-05-22T03:44:38.375Z,10.00
2023-05-22T03:45:09.788Z,10.00
2023-05-22T03:45:40.048Z,10.00
2023-05-22T03:46:11.384Z,10.00
2023-05-22T03:46:42.037Z,10.00
2023-05-22T03:47:12.998Z,10.00
2023-05-22T03:47:44.028Z,10.00
2023-05-22T03:48:14.863Z,10.00
2023-05-22T03:48:46.261Z,10.00
2023-05-22T03:49:16.787Z,10.00
2023-05-22T03:49:47.372Z,10.00
2023-05-22T03:50:19.148Z,10.00
2023-05-22T03:50:49.661Z,10.00
2023-05-22T03:51:20.675Z,10.00
2023-05-22T03:51:51.658Z,10.00
2023-05-22T03:52:22.384Z,10.00
2023-05-22T03:52:53.701Z,10.00
2023-05-22T03:53:24.380Z,10.00
2023-05-22T03:53:55.428Z,10.00
2023-05-22T03:54:26.728Z,10.00
2023-05-22T03:54:57.899Z,10.00
2023-05-22T03:55:28.697Z,10.00
2023-05-22T03:55:59.937Z,10.00
2023-05-22T03:56:30.386Z,10.00
2023-05-22T03:57:01.451Z,10.00
2023-05-22T03:57:32.505Z,10.00
2023-05-22T03:58:03.455Z,10.00
2023-05-22T03:58:34.466Z,10.00
2023-05-22T03:59:05.631Z,10.00
2023-05-22T03:59:36.596Z,10.00
2023-05-22T04:00:08.233Z,10.00
2023-05-22T04:00:39.252Z,10.00
2023-05-22T04:01:10.555Z,10.00
2023-05-22T04:01:40.898Z,10.00
2023-05-22T04:02:11.593Z,10.00
2023-05-22T04:02:42.547Z,10.00
2023-05-22T04:03:13.517Z,10.00
2023-05-22T04:03:44.465Z,10.00
2023-05-22T04:04:15.437Z,10.00
2023-05-22T04:04:46.614Z,10.00
2023-05-22T04:05:18.248Z,10.00
2023-05-22T04:05:48.943Z,10.00
2023-05-22T04:06:20.354Z,10.00
2023-05-22T04:06:51.568Z,10.00
2023-05-22T04:07:21.972Z,10.00
2023-05-22T04:07:53.007Z,10.00
2023-05-22T04:08:24.030Z,10.00
2023-05-22T04:08:55.220Z,10.00
2023-05-22T04:09:26.216Z,10.00
2023-05-22T04:09:57.361Z,10.00
2023-05-22T04:10:28.705Z,10.00
2023-05-22T04:10:59.579Z,10.00
2023-05-22T04:11:30.506Z,10.00
2023-05-22T04:12:01.196Z,10.00
2023-05-22T04:12:32.544Z,10.00
2023-05-22T04:13:02.975Z,10.00
2023-05-22T04:13:33.957Z,10.00
2023-05-22T04:14:07.047Z,10.00
2023-05-22T04:14:36.398Z,10.00
2023-05-22T04:15:08.367Z,10.00
2023-05-22T04:15:37.505Z,10.00
2023-05-22T04:16:08.562Z,10.00
2023-05-22T04:16:39.491Z,10.00
2023-05-22T04:17:10.601Z,10.00
2023-05-22T04:17:41.728Z,10.00
2023-05-22T04:18:12.577Z,10.00
2023-05-22T04:18:43.556Z,10.00
2023-05-22T04:19:14.632Z,10.00
2023-05-22T04:19:45.644Z,10.00
2023-05-22T04:20:17.072Z,10.00
2023-05-22T04:20:47.654Z,10.00
2023-05-22T04:21:18.755Z,10.00
2023-05-22T04:21:49.655Z,10.00
2023-05-22T04:22:20.480Z,10.00
2023-05-22T04:22:51.969Z,10.00
2023-05-22T04:23:22.485Z,10.00
2023-05-22T04:23:53.495Z,10.00
2023-05-22T04:24:24.536Z,10.00
2023-05-22T04:24:55.714Z,10.00
2023-05-22T04:25:27.211Z,10.00
2023-05-22T04:25:57.516Z,10.00
2023-05-22T04:26:28.551Z,10.00
2023-05-22T04:26:59.926Z,10.00
2023-05-22T04:27:31.112Z,10.00
2023-05-22T04:28:01.526Z,10.00
2023-05-22T04:28:32.716Z,10.00
2023-05-22T04:29:03.490Z,10.00
2023-05-22T04:29:34.508Z,10.00
2023-05-22T04:30:06.410Z,10.00
2023-05-22T04:30:36.636Z,10.00
2023-05-22T04:31:07.891Z,10.00
2023-05-22T04:31:38.838Z,10.00
2023-05-22T04:32:09.933Z,10.00
2023-05-22T04:32:40.906Z,10.00
2023-05-22T04:33:12.229Z,10.00
2023-05-22T04:33:42.776Z,10.00
2023-05-22T04:34:13.525Z,10.00
2023-05-22T04:34:44.936Z,10.00
2023-05-22T04:35:15.797Z,10.00
2023-05-22T04:35:46.530Z,10.00
2023-05-22T04:36:17.561Z,10.00
2023-05-22T04:36:48.529Z,10.00
2023-05-22T04:37:19.548Z,10.00
2023-05-22T04:37:50.755Z,10.00
2023-05-22T04:38:22.027Z,10.00
2023-05-22T04:38:52.825Z,10.00
2023-05-22T04:39:24.055Z,10.10
2023-05-22T04:39:55.497Z,10.10
2023-05-22T04:40:26.906Z,10.10
2023-05-22T04:40:57.065Z,10.10
2023-05-22T04:41:28.069Z,10.10
2023-05-22T04:41:59.111Z,10.10
2023-05-22T04:42:30.581Z,10.10
2023-05-22T04:43:01.122Z,10.10
2023-05-22T04:43:32.173Z,10.10
2023-05-22T04:44:03.036Z,10.10
2023-05-22T04:44:34.494Z,10.10
2023-05-22T04:45:05.889Z,10.10
2023-05-22T04:45:37.948Z,10.10
2023-05-22T04:46:07.516Z,10.10
2023-05-22T04:46:39.367Z,10.10
2023-05-22T04:47:09.258Z,10.10
2023-05-22T04:47:40.125Z,10.10
2023-05-22T04:48:11.257Z,10.10
2023-05-22T04:48:42.044Z,10.10
2023-05-22T04:49:13.114Z,10.10
2023-05-22T04:49:44.206Z,10.40
2023-05-22T04:50:15.731Z,10.40
2023-05-22T04:50:46.125Z,10.40
2023-05-22T04:51:17.365Z,10.40
2023-05-22T04:51:48.171Z,10.40
2023-05-22T04:52:19.253Z,10.50
2023-05-22T04:52:50.415Z,10.50
2023-05-22T04:53:22.207Z,10.60
2023-05-22T04:53:52.530Z,10.60
2023-05-22T04:54:23.527Z,10.60
2023-05-22T04:54:54.279Z,10.60
2023-05-22T04:55:25.497Z,10.60
2023-05-22T04:55:56.439Z,10.70
2023-05-22T04:56:35.425Z,10.70
2023-05-22T04:56:58.061Z,10.70
2023-05-22T04:57:29.650Z,10.70
2023-05-22T04:58:00.579Z,10.70
2023-05-22T04:58:31.532Z,10.70
2023-05-22T04:59:02.221Z,10.70
2023-05-22T04:59:33.167Z,10.70
2023-05-22T05:00:05.040Z,10.70
2023-05-22T05:00:35.796Z,10.70
2023-05-22T05:01:06.187Z,10.70
2023-05-22T05:01:37.559Z,10.70
2023-05-22T05:02:08.537Z,10.70
2023-05-22T05:02:39.552Z,10.70
2023-05-22T05:03:10.744Z,10.70
2023-05-22T05:03:41.473Z,10.70
2023-05-22T05:04:12.514Z,10.70
2023-05-22T05:04:43.203Z,10.70
2023-05-22T05:05:14.783Z,10.70
2023-05-22T05:05:46.177Z,10.70
2023-05-22T05:06:16.205Z,10.70
2023-05-22T05:06:47.317Z,10.70
2023-05-22T05:07:18.400Z,10.70
2023-05-22T05:07:50.036Z,10.70
2023-05-22T05:08:19.656Z,10.70
2023-05-22T05:08:50.655Z,10.70
2023-05-22T05:09:21.634Z,10.70
2023-05-22T05:09:52.645Z,10.70
2023-05-22T05:10:24.411Z,10.70
2023-05-22T05:10:54.885Z,10.70
2023-05-22T05:11:26.187Z,10.70
2023-05-22T05:11:56.624Z,10.70
2023-05-22T05:12:27.852Z,10.70
2023-05-22T05:12:58.939Z,10.70
2023-05-22T05:13:29.648Z,10.70
2023-05-22T05:14:00.911Z,10.70
2023-05-22T05:14:31.702Z,10.70
2023-05-22T05:15:03.259Z,10.70
2023-05-22T05:15:34.232Z,11.20
2023-05-22T05:16:05.546Z,11.20
2023-05-22T05:16:36.644Z,11.20
2023-05-22T05:17:09.003Z,11.20
2023-05-22T05:17:38.425Z,11.20
2023-05-22T05:18:11.121Z,11.20
2023-05-22T05:18:40.571Z,11.50
2023-05-22T05:19:12.024Z,11.50
2023-05-22T05:19:42.676Z,11.50
2023-05-22T05:20:14.011Z,11.50
2023-05-22T05:20:44.358Z,11.50
2023-05-22T05:21:15.395Z,11.50
2023-05-22T05:21:46.728Z,11.50
2023-05-22T05:22:17.248Z,11.50
2023-05-22T05:22:48.217Z,11.50
2023-05-22T05:23:19.255Z,11.50
2023-05-22T05:23:50.313Z,11.50
2023-05-22T05:24:21.347Z,11.50
2023-05-22T05:24:52.222Z,11.50
2023-05-22T05:25:24.175Z,11.50
2023-05-22T05:25:54.187Z,11.50
2023-05-22T05:26:25.679Z,11.50
2023-05-22T05:26:56.302Z,11.50
2023-05-22T05:27:27.583Z,11.50
2023-05-22T05:27:58.275Z,11.50
2023-05-22T05:28:29.499Z,12.90
2023-05-22T05:29:00.417Z,12.90
2023-05-22T05:29:31.247Z,12.90
2023-05-22T05:30:02.753Z,12.90
2023-05-22T05:30:33.554Z,12.90
2023-05-22T05:31:04.424Z,12.90
2023-05-22T05:31:36.095Z,12.90
2023-05-22T05:32:06.455Z,13.10
2023-05-22T05:32:37.433Z,13.30
2023-05-22T05:33:08.378Z,13.50
2023-05-22T05:33:39.320Z,13.70
2023-05-22T05:34:10.546Z,13.70
2023-05-22T05:34:41.665Z,13.70
2023-05-22T05:35:13.140Z,13.70
2023-05-22T05:35:43.322Z,13.40
2023-05-22T05:36:14.245Z,13.40
2023-05-22T05:36:45.263Z,13.40
2023-05-22T05:37:16.364Z,13.40
2023-05-22T05:37:47.431Z,13.40
2023-05-22T05:38:18.433Z,13.30
2023-05-22T05:38:49.823Z,13.30
2023-05-22T05:39:20.476Z,13.30
2023-05-22T05:39:51.500Z,13.30
2023-05-22T05:40:22.749Z,13.40
2023-05-22T05:40:53.672Z,13.40
2023-05-22T05:41:24.330Z,13.40
2023-05-22T05:41:55.482Z,13.40
2023-05-22T05:42:26.341Z,13.40
2023-05-22T05:42:57.609Z,13.40
2023-05-22T05:43:28.731Z,13.40
2023-05-22T05:43:59.577Z,13.40
2023-05-22T05:44:30.456Z,13.40
2023-05-22T05:45:02.044Z,13.50
2023-05-22T05:45:32.404Z,13.50
2023-05-22T05:46:03.754Z,13.50
2023-05-22T05:46:34.517Z,13.50
2023-05-22T05:47:05.823Z,13.50
2023-05-22T05:47:36.752Z,13.50
2023-05-22T05:48:07.435Z,13.50
2023-05-22T05:48:39.513Z,13.50
2023-05-22T05:49:10.250Z,13.50
2023-05-22T05:49:40.653Z,13.50
2023-05-22T05:50:11.980Z,13.50
2023-05-22T05:50:42.499Z,13.60
2023-05-22T05:51:13.540Z,13.70
2023-05-22T05:51:44.412Z,13.70
2023-05-22T05:52:15.428Z,13.70
2023-05-22T05:52:46.355Z,13.70
2023-05-22T05:53:17.478Z,13.80
2023-05-22T05:53:48.497Z,13.80
2023-05-22T05:54:19.674Z,13.80
2023-05-22T05:54:50.478Z,13.80
2023-05-22T05:55:22.313Z,13.90
2023-05-22T05:55:52.774Z,13.90
2023-05-22T05:56:23.622Z,13.90
2023-05-22T05:56:54.420Z,14.10
2023-05-22T05:57:26.064Z,14.10
2023-05-22T05:57:56.383Z,14.10
2023-05-22T05:58:27.551Z,14.10
2023-05-22T05:58:58.564Z,14.10
2023-05-22T05:59:29.636Z,14.10
2023-05-22T06:00:01.354Z,14.10
2023-05-22T06:00:31.693Z,14.20
2023-05-22T06:01:02.327Z,14.30
2023-05-22T06:01:33.682Z,14.30
2023-05-22T06:02:04.485Z,14.40
2023-05-22T06:02:35.449Z,14.40
2023-05-22T06:03:06.887Z,14.40
2023-05-22T06:03:37.677Z,14.40
2023-05-22T06:04:08.474Z,14.50
2023-05-22T06:04:39.404Z,14.50
2023-05-22T06:05:11.590Z,14.60
2023-05-22T06:05:41.747Z,14.60
2023-05-22T06:06:12.459Z,14.60
2023-05-22T06:06:43.483Z,14.60
2023-05-22T06:07:14.630Z,14.60
2023-05-22T06:07:45.435Z,14.60
2023-05-22T06:08:16.879Z,14.60
2023-05-22T06:08:47.658Z,14.60
2023-05-22T06:09:18.596Z,14.60
2023-05-22T06:09:49.581Z,14.70
2023-05-22T06:10:21.304Z,14.70
2023-05-22T06:10:51.812Z,14.70
2023-05-22T06:11:22.785Z,14.80
2023-05-22T06:11:53.450Z,14.80
2023-05-22T06:12:24.457Z,14.80
2023-05-22T06:12:55.701Z,14.80
2023-05-22T06:13:26.704Z,14.80
2023-05-22T06:13:57.511Z,14.80
2023-05-22T06:14:28.860Z,14.80
2023-05-22T06:14:59.794Z,14.90
2023-05-22T06:15:31.508Z,14.90
2023-05-22T06:16:04.261Z,15.00
2023-05-22T06:16:32.674Z,15.00
2023-05-22T06:17:03.500Z,15.00
2023-05-22T06:17:34.732Z,15.10
2023-05-22T06:18:05.628Z,15.20
2023-05-22T06:18:36.634Z,15.20
2023-05-22T06:19:07.858Z,15.50
2023-05-22T06:19:38.514Z,15.50
2023-05-22T06:20:11.004Z,15.50
2023-05-22T06:20:40.650Z,15.50
2023-05-22T06:21:12.234Z,15.40
2023-05-22T06:21:42.572Z,15.40
2023-05-22T06:22:13.507Z,15.30
2023-05-22T06:22:44.617Z,15.30
2023-05-22T06:23:15.591Z,15.30
2023-05-22T06:23:46.624Z,15.30
2023-05-22T06:24:17.603Z,15.30
2023-05-22T06:24:48.699Z,15.40
2023-05-22T06:25:20.330Z,15.40
2023-05-22T06:25:50.704Z,15.50
2023-05-22T06:26:22.269Z,15.60
2023-05-22T06:26:52.510Z,15.70
2023-05-22T06:27:24.177Z,15.70
2023-05-22T06:27:54.833Z,15.70
2023-05-22T06:28:25.993Z,15.70
2023-05-22T06:28:56.513Z,15.80
2023-05-22T06:29:27.570Z,15.90
2023-05-22T06:29:58.704Z,16.00
2023-05-22T06:30:39.443Z,16.00
2023-05-22T06:31:00.533Z,16.00
2023-05-22T06:31:31.658Z,16.00
2023-05-22T06:32:02.671Z,16.00
2023-05-22T06:32:34.769Z,16.10
2023-05-22T06:33:05.058Z,16.20
2023-05-22T06:33:35.778Z,16.30
2023-05-22T06:34:06.964Z,16.30
2023-05-22T06:34:37.761Z,16.30
2023-05-22T06:35:09.074Z,16.30
2023-05-22T06:35:39.553Z,16.30
2023-05-22T06:36:10.572Z,16.30
2023-05-22T06:36:41.792Z,16.30
2023-05-22T06:37:12.590Z,16.30
2023-05-22T06:37:43.670Z,16.30
2023-05-22T06:38:14.820Z,16.30
2023-05-22T06:38:45.810Z,16.30
2023-05-22T06:39:16.540Z,16.30
2023-05-22T06:39:49.086Z,16.30
2023-05-22T06:40:19.367Z,16.30